Time;durP1;ratioP1;P1;durP2;ratioP2;P2;SDS_P1;SDS_P2;PMS_P1;PMS_P2;Temp;Humidity;BMP_temperature;BMP_pressure;BME280_temperature;BME280_humidity;BME280_pressure;Samples;Min_cycle;Max_cycle;Signal;HPM_P1;HPM_P2
2023/08/16 00:00:06;;;;;;;9.50;7.40;;;;;;;22.78;63.52;100105.21;107449;1259;72622;-39
2023/08/16 00:02:34;;;;;;;8.70;7.40;;;;;;;22.74;63.35;100107.02;107462;1259;67868;-39
2023/08/16 00:05:03;;;;;;;13.70;8.00;;;;;;;22.71;63.21;100109.20;107405;1254;72670;-40
2023/08/16 00:07:34;;;;;;;10.90;7.80;;;;;;;22.66;63.17;100112.59;107496;1254;60341;-39
2023/08/16 00:10:01;;;;;;;11.30;7.90;;;;;;;22.59;63.19;100105.63;107435;1254;60515;-39
2023/08/16 00:12:29;;;;;;;9.60;7.70;;;;;;;22.54;63.42;100111.78;107406;1259;73868;-39
2023/08/16 00:14:57;;;;;;;9.60;7.70;;;;;;;22.49;63.52;100113.77;107441;1254;68018;-40
2023/08/16 00:17:24;;;;;;;10.40;7.90;;;;;;;22.47;63.72;100112.45;107419;1257;71944;-40
2023/08/16 00:19:52;;;;;;;11.30;7.70;;;;;;;22.49;63.63;100114.71;107442;1257;60328;-40
2023/08/16 00:22:20;;;;;;;10.00;7.70;;;;;;;22.47;63.62;100115.60;107438;1258;60472;-39
2023/08/16 00:24:47;;;;;;;10.70;8.00;;;;;;;22.44;63.66;100112.77;107452;1254;73902;-40
2023/08/16 00:27:14;;;;;;;10.80;7.80;;;;;;;22.39;63.72;100111.74;107469;1255;66859;-40
2023/08/16 00:29:46;;;;;;;10.50;7.60;;;;;;;22.35;63.72;100116.23;107451;1254;71445;-40
2023/08/16 00:32:13;;;;;;;8.90;8.00;;;;;;;22.31;63.72;100115.50;107340;1254;60545;-39
2023/08/16 00:34:41;;;;;;;11.10;8.50;;;;;;;22.28;63.83;100112.89;107439;1254;60152;-40
2023/08/16 00:37:12;;;;;;;10.70;7.70;;;;;;;22.24;63.97;100116.09;107440;1254;73884;-39
2023/08/16 00:39:40;;;;;;;9.90;7.80;;;;;;;22.25;63.83;100120.11;107428;1254;67566;-39
2023/08/16 00:42:07;;;;;;;9.90;7.40;;;;;;;22.27;63.86;100119.77;107474;1257;72663;-39
2023/08/16 00:44:35;;;;;;;11.50;7.50;;;;;;;22.25;63.81;100125.16;107423;1259;60447;-41
2023/08/16 00:47:04;;;;;;;13.70;8.00;;;;;;;22.22;63.96;100127.41;107444;1254;60306;-41
2023/08/16 00:49:32;;;;;;;10.70;8.10;;;;;;;22.20;64.03;100126.98;107444;1253;72645;-41
2023/08/16 00:52:00;;;;;;;10.10;7.70;;;;;;;22.19;64.49;100131.48;107426;1254;66404;-41
2023/08/16 00:54:28;;;;;;;12.00;7.90;;;;;;;22.17;64.64;100132.02;107434;1259;72660;-41
2023/08/16 00:56:56;;;;;;;11.60;7.40;;;;;;;22.14;64.58;100127.77;107307;1254;60863;-41
2023/08/16 00:59:25;;;;;;;10.30;7.80;;;;;;;22.14;64.58;100129.67;107521;1254;60476;-38
2023/08/16 01:01:53;;;;;;;9.20;7.40;;;;;;;22.14;64.74;100134.88;107306;1254;74292;-39
2023/08/16 01:04:21;;;;;;;11.60;7.40;;;;;;;22.11;64.64;100136.43;107460;1254;66886;-40
2023/08/16 01:06:48;;;;;;;10.50;8.30;;;;;;;22.09;64.97;100135.98;107254;1254;71438;-40
2023/08/16 01:09:16;;;;;;;9.60;8.30;;;;;;;22.08;64.77;100137.48;107425;1254;60504;-40
2023/08/16 01:12:02;;;;;;;10.90;7.90;;;;;;;22.05;64.61;100136.75;107460;1259;60539;-40
2023/08/16 01:14:38;;;;;;;9.80;7.90;;;;;;;22.03;64.84;100134.80;107478;1254;73461;-40
2023/08/16 01:17:06;;;;;;;9.80;7.80;;;;;;;21.98;64.70;100135.27;107294;1254;67617;-40
2023/08/16 01:19:33;;;;;;;11.60;7.80;;;;;;;21.98;64.86;100137.25;107320;1257;71439;-40
2023/08/16 01:22:13;;;;;;;9.90;8.30;;;;;;;22.02;64.89;100138.70;107447;1254;60310;-40
2023/08/16 01:25:19;;;;;;;12.30;8.60;;;;;;;22.01;64.82;100134.38;107480;1254;60371;-40
2023/08/16 01:27:46;;;;;;;9.40;8.00;;;;;;;21.97;64.94;100133.33;107283;1254;72709;-39
2023/08/16 01:30:14;;;;;;;11.40;8.50;;;;;;;21.93;64.83;100132.75;107462;1260;67967;-40
2023/08/16 01:32:42;;;;;;;9.50;8.50;;;;;;;21.88;65.14;100133.73;107249;1254;72021;-40
2023/08/16 01:35:10;;;;;;;12.90;8.20;;;;;;;21.84;65.11;100131.77;107284;1254;61658;-40
2023/08/16 01:37:37;;;;;;;12.00;8.10;;;;;;;21.83;65.23;100131.70;107421;1254;59099;-40
2023/08/16 01:40:08;;;;;;;9.70;7.70;;;;;;;21.85;65.22;100129.92;107455;1254;73020;-40
2023/08/16 01:42:45;;;;;;;11.70;8.30;;;;;;;21.82;65.16;100127.53;107460;1254;67677;-40
2023/08/16 01:45:13;;;;;;;10.50;8.20;;;;;;;21.79;65.23;100125.67;107451;1259;71380;-39
2023/08/16 01:47:41;;;;;;;12.10;8.30;;;;;;;21.75;65.41;100126.52;107400;1253;60171;-39
2023/08/16 01:50:09;;;;;;;15.50;8.80;;;;;;;21.68;65.55;100124.65;107263;1254;60293;-40
2023/08/16 01:52:37;;;;;;;13.30;7.90;;;;;;;21.63;65.70;100122.20;107323;1254;73927;-40
2023/08/16 01:55:05;;;;;;;11.70;7.90;;;;;;;21.62;65.48;100120.80;107310;1254;66428;-40
2023/08/16 01:57:33;;;;;;;9.60;7.80;;;;;;;21.63;65.65;100117.48;107495;1255;72658;-39
2023/08/16 02:00:02;;;;;;;11.80;8.90;;;;;;;21.61;65.60;100121.44;107371;1254;60412;-39
2023/08/16 02:02:41;;;;;;;12.20;8.20;;;;;;;21.60;65.63;100125.01;107367;1257;60152;-40
2023/08/16 02:05:09;;;;;;;11.30;8.90;;;;;;;21.58;65.92;100126.92;107350;1254;73841;-40
2023/08/16 02:07:37;;;;;;;12.40;8.50;;;;;;;21.56;66.80;100122.70;107404;1254;66321;-40
2023/08/16 02:10:06;;;;;;;12.50;7.90;;;;;;;21.56;67.78;100123.17;107366;1254;71427;-40
2023/08/16 02:12:33;;;;;;;11.30;8.20;;;;;;;21.58;67.78;100122.12;107517;1254;60433;-40
2023/08/16 02:15:02;;;;;;;10.00;7.70;;;;;;;21.58;67.49;100115.88;107499;1258;60300;-40
2023/08/16 02:17:30;;;;;;;12.30;7.90;;;;;;;21.60;67.48;100120.90;107413;1259;73084;-40
2023/08/16 02:19:57;;;;;;;11.30;8.60;;;;;;;21.59;67.50;100122.02;107351;1253;67892;-40
2023/08/16 02:22:25;;;;;;;19.20;8.50;;;;;;;21.57;67.60;100122.92;107461;1253;71408;-40
2023/08/16 02:25:10;;;;;;;13.00;8.00;;;;;;;21.53;67.49;100125.49;107463;1254;60600;-40
2023/08/16 02:27:39;;;;;;;12.30;8.40;;;;;;;21.51;67.30;100124.17;107415;1259;60073;-40
2023/08/16 02:30:07;;;;;;;11.70;7.90;;;;;;;21.52;67.09;100124.56;107354;1253;73843;-40
2023/08/16 02:32:36;;;;;;;11.30;8.40;;;;;;;21.53;66.90;100126.92;107507;1254;67647;-40
2023/08/16 02:35:04;;;;;;;10.00;8.20;;;;;;;21.52;67.08;100126.77;107438;1254;72670;-40
2023/08/16 02:37:31;;;;;;;11.60;8.40;;;;;;;21.51;67.36;100129.38;107424;1254;60536;-40
2023/08/16 02:39:59;;;;;;;12.10;8.50;;;;;;;21.51;67.28;100132.05;107351;1254;60325;-41
2023/08/16 02:42:27;;;;;;;10.40;8.80;;;;;;;21.49;67.28;100132.80;107426;1254;72540;-41
2023/08/16 02:44:54;;;;;;;13.20;8.60;;;;;;;21.47;67.27;100139.77;107339;1254;66307;-40
2023/08/16 02:47:22;;;;;;;11.50;8.30;;;;;;;21.48;67.20;100139.60;107391;1254;71479;-41
2023/08/16 02:49:50;;;;;;;10.20;8.90;;;;;;;21.48;67.19;100132.58;107479;1253;60430;-41
2023/08/16 02:52:18;;;;;;;10.10;7.90;;;;;;;21.50;67.35;100135.30;107377;1254;61191;-41
2023/08/16 02:54:45;;;;;;;10.00;8.40;;;;;;;21.46;67.34;100133.70;107496;1254;73872;-41
2023/08/16 02:57:13;;;;;;;13.00;8.30;;;;;;;21.44;67.41;100137.77;107488;1254;66293;-41
2023/08/16 02:59:42;;;;;;;13.00;9.20;;;;;;;21.42;67.52;100140.38;107473;1253;72667;-41
2023/08/16 03:02:10;;;;;;;10.60;8.20;;;;;;;21.41;67.60;100143.95;107506;1254;61738;-41
2023/08/16 03:04:39;;;;;;;11.40;8.10;;;;;;;21.43;67.53;100143.69;107404;1254;60513;-41
2023/08/16 03:07:08;;;;;;;11.60;8.10;;;;;;;21.45;67.48;100141.05;107490;1253;73865;-41
2023/08/16 03:09:35;;;;;;;10.50;8.40;;;;;;;21.44;67.36;100145.63;107518;1254;66305;-41
2023/08/16 03:12:04;;;;;;;12.40;8.40;;;;;;;21.43;67.26;100144.95;107517;1254;72806;-40
2023/08/16 03:14:31;;;;;;;12.50;8.90;;;;;;;21.43;67.15;100147.48;107578;1257;60491;-41
2023/08/16 03:16:59;;;;;;;10.00;8.60;;;;;;;21.42;66.93;100147.16;107460;1254;60447;-41
2023/08/16 03:19:28;;;;;;;10.90;8.60;;;;;;;21.41;66.98;100147.80;107349;1253;72582;-41
2023/08/16 03:21:56;;;;;;;11.50;8.60;;;;;;;21.43;66.75;100149.12;107458;1254;67571;-41
2023/08/16 03:24:26;;;;;;;12.20;8.50;;;;;;;21.47;66.75;100150.96;107470;1254;71409;-41
2023/08/16 03:26:55;;;;;;;14.90;9.40;;;;;;;21.48;66.60;100145.52;107378;1254;60421;-41
2023/08/16 03:29:23;;;;;;;12.40;9.10;;;;;;;21.48;66.34;100152.45;107385;1254;60289;-41
2023/08/16 03:31:51;;;;;;;11.10;8.80;;;;;;;21.50;66.10;100152.88;107482;1254;74532;-41
2023/08/16 03:34:18;;;;;;;12.40;8.30;;;;;;;21.52;66.15;100154.36;107468;1254;67775;-41
2023/08/16 03:36:46;;;;;;;16.80;9.30;;;;;;;21.54;66.07;100154.02;107403;1254;71402;-41
2023/08/16 03:39:14;;;;;;;11.90;9.10;;;;;;;21.55;66.11;100155.66;107429;1257;60881;-41
2023/08/16 03:41:43;;;;;;;11.20;8.10;;;;;;;21.59;66.19;100153.88;107419;1253;59578;-40
2023/08/16 03:44:11;;;;;;;10.60;8.00;;;;;;;21.65;66.26;100159.86;107478;1253;72585;-41
2023/08/16 03:46:40;;;;;;;12.40;9.10;;;;;;;21.67;66.25;100159.37;107436;1254;66482;-41
2023/08/16 03:49:08;;;;;;;12.20;9.20;;;;;;;21.69;66.31;100158.70;107556;1254;72656;-41
2023/08/16 03:51:35;;;;;;;13.70;9.00;;;;;;;21.73;66.24;100158.34;107459;1254;60509;-41
2023/08/16 03:54:03;;;;;;;11.40;8.60;;;;;;;21.76;66.02;100158.84;107650;1254;60309;-41
2023/08/16 03:56:31;;;;;;;13.30;8.80;;;;;;;21.78;65.91;100160.80;107488;1254;73902;-41
2023/08/16 03:58:58;;;;;;;11.30;8.20;;;;;;;21.79;65.94;100160.23;107471;1254;67883;-41
2023/08/16 04:01:26;;;;;;;10.70;8.60;;;;;;;21.85;66.20;100162.59;107452;1254;71342;-41
2023/08/16 04:03:54;;;;;;;10.90;8.70;;;;;;;21.91;66.51;100162.82;107575;1254;60303;-41
2023/08/16 04:06:21;;;;;;;11.30;8.90;;;;;;;21.95;66.77;100166.41;107488;1253;60367;-41
2023/08/16 04:08:49;;;;;;;14.00;9.20;;;;;;;21.98;66.96;100169.42;107563;1254;73857;-41
2023/08/16 04:11:17;;;;;;;10.80;9.10;;;;;;;22.01;67.15;100168.77;107535;1253;67592;-41
2023/08/16 04:13:44;;;;;;;13.80;9.30;;;;;;;22.04;67.10;100171.80;107477;1253;72673;-41
2023/08/16 04:16:12;;;;;;;11.70;9.40;;;;;;;22.06;67.29;100176.26;107391;1256;61795;-41
2023/08/16 04:18:40;;;;;;;10.80;8.80;;;;;;;22.14;67.21;100176.63;107354;1253;60821;-40
2023/08/16 04:21:07;;;;;;;10.50;9.10;;;;;;;22.23;67.28;100180.35;107456;1253;73848;-41
2023/08/16 04:23:35;;;;;;;12.90;10.10;;;;;;;22.30;67.19;100178.81;107357;1254;67587;-41
2023/08/16 04:26:02;;;;;;;12.70;10.60;;;;;;;22.37;67.37;100179.41;107411;1256;71484;-41
2023/08/16 04:28:32;;;;;;;16.30;11.00;;;;;;;22.43;67.38;100182.31;107442;1253;60425;-41
2023/08/16 04:31:01;;;;;;;14.50;11.00;;;;;;;22.50;67.44;100181.27;107403;1254;60305;-41
2023/08/16 04:33:28;;;;;;;15.20;10.70;;;;;;;22.59;67.23;100180.88;107297;1253;73918;-41
2023/08/16 04:35:56;;;;;;;13.40;10.00;;;;;;;22.70;67.31;100184.56;107480;1257;66626;-41
2023/08/16 04:38:24;;;;;;;18.00;10.60;;;;;;;22.78;67.38;100183.02;107441;1254;72697;-41
2023/08/16 04:40:52;;;;;;;14.70;11.50;;;;;;;22.85;67.17;100187.30;107470;1257;60446;-41
2023/08/16 04:43:20;;;;;;;14.30;11.80;;;;;;;22.92;67.09;100187.75;107493;1257;59624;-41
2023/08/16 04:45:48;;;;;;;20.30;12.10;;;;;;;23.00;66.69;100188.80;107435;1254;72537;-41
2023/08/16 04:48:16;;;;;;;15.20;11.30;;;;;;;23.05;66.50;100188.22;107556;1253;67947;-41
2023/08/16 04:50:45;;;;;;;13.60;10.50;;;;;;;23.15;66.40;100191.96;107455;1254;71551;-41
2023/08/16 04:53:13;;;;;;;12.90;10.50;;;;;;;23.26;65.83;100193.34;107538;1253;60437;-41
2023/08/16 04:55:42;;;;;;;15.40;10.80;;;;;;;23.34;65.55;100190.81;107508;1254;60754;-41
2023/08/16 04:58:10;;;;;;;14.90;10.50;;;;;;;23.42;65.24;100195.00;107475;1254;73101;-41
2023/08/16 05:00:44;;;;;;;12.60;10.60;;;;;;;23.50;65.12;100196.93;107489;1254;66624;-40
2023/08/16 05:03:11;;;;;;;12.80;10.40;;;;;;;23.56;64.98;100200.27;107412;1257;71534;-41
2023/08/16 05:05:39;;;;;;;13.70;10.50;;;;;;;23.62;64.88;100198.16;107484;1254;60187;-40
2023/08/16 05:08:08;;;;;;;12.90;9.90;;;;;;;23.68;64.69;100201.13;107385;1254;60310;-40
2023/08/16 05:10:37;;;;;;;13.40;9.70;;;;;;;23.78;64.00;100199.73;107408;1254;72583;-40
2023/08/16 05:13:04;;;;;;;14.90;10.20;;;;;;;23.89;63.63;100200.61;107417;1254;67901;-40
2023/08/16 05:15:32;;;;;;;13.10;9.40;;;;;;;23.98;63.53;100203.11;107453;1259;73249;-41
2023/08/16 05:18:00;;;;;;;13.40;10.00;;;;;;;24.06;63.66;100201.48;107296;1253;60390;-41
2023/08/16 05:20:28;;;;;;;11.10;8.90;;;;;;;24.14;63.03;100204.78;107483;1253;60437;-40
2023/08/16 05:22:55;;;;;;;16.80;9.40;;;;;;;24.22;62.53;100201.70;107401;1254;73870;-40
2023/08/16 05:25:23;;;;;;;21.10;9.40;;;;;;;24.29;61.89;100202.02;107384;1254;66272;-40
2023/08/16 05:27:51;;;;;;;10.10;8.80;;;;;;;24.35;60.97;100207.73;107414;1253;72655;-40
2023/08/16 05:30:19;;;;;;;11.20;8.30;;;;;;;24.41;60.84;100208.61;107375;1254;60131;-43
2023/08/16 05:32:47;;;;;;;13.80;8.90;;;;;;;24.46;60.71;100210.88;107395;1253;60268;-40
2023/08/16 05:35:15;;;;;;;12.80;8.50;;;;;;;24.50;60.79;100211.39;107462;1252;73513;-40
2023/08/16 05:37:42;;;;;;;14.80;8.40;;;;;;;24.53;60.69;100209.89;107471;1255;66227;-39
2023/08/16 05:40:11;;;;;;;13.30;8.70;;;;;;;24.56;60.73;100210.45;107448;1253;72709;-38
2023/08/16 05:42:39;;;;;;;11.30;7.70;;;;;;;24.58;60.45;100211.77;107498;1254;61895;-39
2023/08/16 05:45:08;;;;;;;11.20;7.60;;;;;;;24.63;60.40;100213.83;107364;1254;61239;-39
2023/08/16 05:47:35;;;;;;;9.90;7.30;;;;;;;24.71;60.39;100211.90;107319;1253;73275;-39
2023/08/16 05:50:03;;;;;;;10.40;7.30;;;;;;;24.75;60.19;100214.11;107401;1254;66066;-39
2023/08/16 05:52:31;;;;;;;9.30;7.90;;;;;;;24.77;60.38;100214.69;107486;1259;71180;-39
2023/08/16 05:57:51;;;;;;;10.00;7.90;;;;;;;24.84;60.93;100212.68;103972;1293;600860;-39
2023/08/16 06:00:21;;;;;;;;;;;;;;;24.88;61.04;100211.58;106613;1266;60583;-39
2023/08/16 06:02:48;;;;;;;10.20;7.70;;;;;;;24.92;60.71;100210.42;106582;1267;59158;-39
2023/08/16 06:05:16;;;;;;;8.70;7.10;;;;;;;24.96;60.86;100211.36;106660;1267;72240;-39
2023/08/16 06:07:45;;;;;;;13.40;7.20;;;;;;;25.02;60.66;100213.12;106561;1266;67556;-39
2023/08/16 06:10:12;;;;;;;8.30;6.90;;;;;;;25.07;60.55;100212.90;106734;1267;72138;-39
2023/08/16 06:12:40;;;;;;;11.20;7.50;;;;;;;25.12;60.26;100212.77;106673;1264;158962;-39
2023/08/16 06:15:11;;;;;;;7.60;6.70;;;;;;;25.17;59.96;100215.41;106749;1263;60041;-38
2023/08/16 06:17:39;;;;;;;8.80;6.50;;;;;;;25.23;60.15;100215.39;106814;1263;72274;-38
2023/08/16 06:20:07;;;;;;;7.50;6.10;;;;;;;25.34;59.53;100212.16;106764;1264;67734;-39
2023/08/16 06:22:37;;;;;;;7.70;4.90;;;;;;;25.47;58.80;100208.99;106689;1264;71448;-39
2023/08/16 06:25:09;;;;;;;11.80;5.70;;;;;;;25.58;57.28;100206.42;106647;1264;60939;-39
2023/08/16 06:27:36;;;;;;;8.40;6.00;;;;;;;25.68;56.35;100205.03;106690;1266;59513;-39
2023/08/16 06:30:05;;;;;;;8.00;5.60;;;;;;;25.77;56.68;100206.41;106786;1264;73066;-41
2023/08/16 06:32:32;;;;;;;8.80;5.40;;;;;;;25.87;56.38;100203.11;107017;1260;67726;-40
2023/08/16 06:35:00;;;;;;;11.10;5.90;;;;;;;25.95;55.51;100204.38;107042;1260;72688;-39
2023/08/16 06:37:28;;;;;;;7.30;5.30;;;;;;;26.02;55.77;100202.10;107020;1261;60017;-40
2023/08/16 06:39:56;;;;;;;23.00;15.80;;;;;;;26.09;54.69;100203.48;107063;1260;59678;-40
2023/08/16 06:42:24;;;;;;;14.80;12.50;;;;;;;26.15;54.27;100202.63;106902;1260;73549;-44
2023/08/16 06:44:52;;;;;;;93.50;13.70;;;;;;;26.22;53.62;100201.93;106923;1260;69369;-41
2023/08/16 06:47:20;;;;;;;8.40;5.80;;;;;;;26.30;54.00;100200.13;107007;1260;72705;-41
2023/08/16 06:49:50;;;;;;;7.20;5.70;;;;;;;26.38;53.80;100198.35;107050;1260;60040;-39
2023/08/16 06:52:18;;;;;;;9.10;5.20;;;;;;;26.47;53.84;100193.92;106961;1260;60226;-39
2023/08/16 06:54:45;;;;;;;8.40;5.20;;;;;;;26.58;53.23;100200.08;106877;1260;72989;-39
2023/08/16 06:57:13;;;;;;;7.70;4.90;;;;;;;26.71;52.72;100198.54;106894;1261;66927;-39
2023/08/16 06:59:41;;;;;;;8.80;4.60;;;;;;;26.84;52.69;100197.83;106800;1260;73454;-39
2023/08/16 07:02:11;;;;;;;6.10;4.40;;;;;;;26.97;52.77;100194.70;106879;1263;60080;-39
2023/08/16 07:04:38;;;;;;;6.30;4.20;;;;;;;27.09;51.83;100196.52;106851;1261;59898;-39
2023/08/16 07:07:06;;;;;;;5.50;4.30;;;;;;;27.18;51.43;100196.17;106856;1261;73071;-39
2023/08/16 07:09:33;;;;;;;5.90;4.30;;;;;;;27.26;51.24;100198.36;106826;1260;66638;-39
2023/08/16 07:12:01;;;;;;;7.80;4.40;;;;;;;27.34;50.77;100198.80;106825;1263;73180;-39
2023/08/16 07:14:29;;;;;;;5.80;4.10;;;;;;;27.42;50.53;100198.70;106967;1260;59740;-39
2023/08/16 07:16:57;;;;;;;5.70;4.20;;;;;;;27.50;50.47;100199.43;106962;1260;60315;-39
2023/08/16 07:19:25;;;;;;;8.10;4.30;;;;;;;27.60;50.13;100199.11;106971;1260;71809;-39
2023/08/16 07:21:52;;;;;;;13.00;4.20;;;;;;;27.70;49.21;100194.38;106993;1260;66282;-39
2023/08/16 07:24:20;;;;;;;5.60;4.70;;;;;;;27.78;48.74;100196.61;106848;1263;72774;-39
2023/08/16 07:26:47;;;;;;;6.40;4.30;;;;;;;27.87;49.07;100189.89;106852;1263;59588;-39
2023/08/16 07:29:15;;;;;;;7.20;4.70;;;;;;;27.95;48.77;100188.95;106875;1260;59489;-39
2023/08/16 07:31:43;;;;;;;5.60;4.10;;;;;;;28.04;48.84;100192.73;106778;1264;73009;-39
2023/08/16 07:34:11;;;;;;;6.40;4.20;;;;;;;28.13;48.93;100190.00;107015;1260;67891;-39
2023/08/16 07:36:39;;;;;;;6.40;5.20;;;;;;;28.22;48.29;100190.45;107069;1260;71494;-39
2023/08/16 07:39:06;;;;;;;5.80;4.80;;;;;;;28.32;48.47;100184.09;106978;1263;59712;-39
2023/08/16 07:41:34;;;;;;;8.50;5.00;;;;;;;28.39;47.82;100180.98;106992;1260;60089;-39
2023/08/16 07:44:02;;;;;;;6.90;4.70;;;;;;;28.49;47.70;100184.33;107024;1260;73043;-39
2023/08/16 07:46:29;;;;;;;7.60;4.30;;;;;;;28.61;47.75;100184.98;106935;1260;66290;-39
2023/08/16 07:48:58;;;;;;;6.70;4.30;;;;;;;28.74;47.87;100181.94;106924;1263;72660;-39
2023/08/16 07:51:26;;;;;;;5.80;4.10;;;;;;;28.86;47.57;100181.67;107006;1260;60186;-39
2023/08/16 07:53:54;;;;;;;11.60;4.30;;;;;;;28.97;47.09;100183.96;107033;1260;59621;-42
2023/08/16 07:56:22;;;;;;;5.30;3.60;;;;;;;29.10;47.06;100182.45;106961;1260;71760;-41
2023/08/16 07:58:49;;;;;;;5.20;3.70;;;;;;;29.22;46.82;100179.52;106924;1262;68159;-41
2023/08/16 08:01:17;;;;;;;10.40;4.20;;;;;;;29.33;46.06;100174.66;106889;1261;71384;-41
2023/08/16 08:03:46;;;;;;;378.50;35.90;;;;;;;29.45;45.21;100171.88;106794;1260;59212;-40
2023/08/16 08:06:14;;;;;;;89.20;11.40;;;;;;;29.56;44.86;100171.27;106809;1262;60043;-40
2023/08/16 08:08:42;;;;;;;10.50;4.40;;;;;;;29.68;44.06;100164.80;106928;1261;73112;-40
2023/08/16 08:11:09;;;;;;;6.70;3.90;;;;;;;29.78;43.86;100165.55;106843;1266;67926;-40
2023/08/16 08:13:40;;;;;;;5.00;3.50;;;;;;;29.87;43.77;100160.02;106869;1263;72708;-41
2023/08/16 08:16:08;;;;;;;8.00;4.10;;;;;;;29.97;43.24;100162.77;107048;1260;59592;-40
2023/08/16 08:18:36;;;;;;;6.80;3.90;;;;;;;30.06;43.77;100162.48;106961;1260;60073;-40
2023/08/16 08:21:05;;;;;;;6.20;3.80;;;;;;;30.16;43.21;100161.02;106769;1261;71744;-40
2023/08/16 08:23:33;;;;;;;4.80;4.20;;;;;;;30.26;42.50;100162.27;106893;1261;66276;-39
2023/08/16 08:26:00;;;;;;;5.00;3.60;;;;;;;30.35;41.52;100162.48;106804;1263;71239;-40
2023/08/16 08:28:28;;;;;;;11.50;3.40;;;;;;;30.45;41.67;100163.11;106842;1263;60092;-40
2023/08/16 08:30:56;;;;;;;3.90;2.90;;;;;;;30.54;41.80;100161.79;106822;1261;60563;-39
2023/08/16 08:33:25;;;;;;;28.10;5.60;;;;;;;30.65;41.17;100161.50;106944;1260;73126;-38
2023/08/16 08:35:52;;;;;;;9.60;4.40;;;;;;;30.72;41.33;100164.14;107066;1260;68295;-39
2023/08/16 08:38:22;;;;;;;5.10;3.60;;;;;;;30.81;40.82;100163.86;106888;1263;71496;-39
2023/08/16 08:40:57;;;;;;;11.60;4.20;;;;;;;30.93;40.68;100164.30;107050;1265;59620;-39
2023/08/16 08:43:27;;;;;;;6.90;3.90;;;;;;;31.03;39.72;100161.21;106849;1261;59791;-39
2023/08/16 08:45:56;;;;;;;8.10;4.00;;;;;;;31.09;39.49;100155.63;106941;1262;72345;-39
2023/08/16 08:48:27;;;;;;;9.20;4.00;;;;;;;31.14;39.73;100159.34;106879;1261;67585;-39
2023/08/16 08:50:55;;;;;;;7.20;4.00;;;;;;;31.22;39.82;100152.73;106892;1263;71693;-39
2023/08/16 08:53:25;;;;;;;8.60;4.10;;;;;;;31.33;39.66;100153.77;106880;1262;60086;-38
2023/08/16 08:55:54;;;;;;;6.60;4.20;;;;;;;31.42;40.22;100151.90;106876;1265;59528;-39
2023/08/16 08:58:23;;;;;;;5.90;4.00;;;;;;;31.54;40.15;100151.13;106864;1265;73514;-39
2023/08/16 09:00:50;;;;;;;5.40;3.50;;;;;;;31.65;40.02;100152.66;106849;1260;70216;-39
2023/08/16 09:03:21;;;;;;;5.40;3.50;;;;;;;31.73;39.06;100151.17;106933;1263;72678;-39
2023/08/16 09:05:53;;;;;;;7.10;3.70;;;;;;;31.80;39.41;100151.43;106987;1260;60381;-39
2023/08/16 09:08:24;;;;;;;5.20;3.90;;;;;;;31.92;38.92;100151.41;106894;1263;61467;-41
2023/08/16 09:10:52;;;;;;;5.70;3.80;;;;;;;32.01;38.71;100151.54;106742;1264;72272;-41
2023/08/16 09:13:19;;;;;;;6.60;3.70;;;;;;;32.08;38.86;100153.70;106857;1262;67558;-39
2023/08/16 09:15:48;;;;;;;6.40;4.10;;;;;;;32.15;38.08;100152.35;106736;1269;72674;-40
2023/08/16 09:18:17;;;;;;;5.70;3.30;;;;;;;32.25;37.96;100155.08;106828;1263;60498;-39
2023/08/16 09:20:45;;;;;;;7.90;4.10;;;;;;;32.34;36.51;100152.11;106944;1262;60063;-40
2023/08/16 09:23:14;;;;;;;6.10;3.80;;;;;;;32.43;36.29;100152.52;107074;1260;71499;-41
2023/08/16 09:25:45;;;;;;;7.20;4.20;;;;;;;32.51;36.34;100149.30;106836;1263;69205;-40
2023/08/16 09:28:14;;;;;;;4.30;3.50;;;;;;;32.60;36.13;100149.48;106927;1266;72548;-40
2023/08/16 09:30:41;;;;;;;8.30;4.20;;;;;;;32.71;36.27;100148.77;106906;1260;60108;-40
2023/08/16 09:33:13;;;;;;;7.60;3.90;;;;;;;32.82;36.66;100143.58;106846;1260;60045;-40
2023/08/16 09:35:48;;;;;;;8.40;4.50;;;;;;;32.95;36.78;100142.81;106852;1261;73349;-40
2023/08/16 09:38:15;;;;;;;4.90;4.00;;;;;;;33.08;36.52;100139.11;106744;1263;67585;-40
2023/08/16 09:40:52;;;;;;;7.10;4.30;;;;;;;33.20;36.65;100141.46;106834;1263;73861;-39
2023/08/16 09:43:20;;;;;;;8.30;4.20;;;;;;;33.31;36.68;100139.41;106762;1262;59573;-40
2023/08/16 09:45:49;;;;;;;8.50;4.20;;;;;;;33.30;35.67;100138.44;106825;1260;59639;-39
2023/08/16 09:48:18;;;;;;;4.60;4.10;;;;;;;33.21;35.85;100137.23;106986;1260;72353;-39
2023/08/16 09:50:46;;;;;;;6.10;4.00;;;;;;;33.18;35.84;100134.28;106870;1264;67984;-40
2023/08/16 09:53:17;;;;;;;7.30;4.00;;;;;;;33.22;35.69;100134.11;106858;1261;72671;-39
2023/08/16 09:56:02;;;;;;;10.80;4.60;;;;;;;33.19;35.87;100132.98;106839;1263;60524;-40
2023/08/16 09:58:30;;;;;;;9.60;4.10;;;;;;;33.15;36.36;100132.36;107014;1261;60101;-40
2023/08/16 10:00:58;;;;;;;5.60;4.50;;;;;;;33.18;36.10;100130.09;106864;1260;73524;-40
2023/08/16 10:03:26;;;;;;;8.40;4.30;;;;;;;33.34;36.10;100126.61;107010;1260;67742;-39
2023/08/16 10:05:55;;;;;;;6.70;5.00;;;;;;;33.48;35.48;100125.77;106883;1260;70991;-39
2023/08/16 10:08:22;;;;;;;6.40;5.10;;;;;;;33.61;35.99;100118.92;106931;1260;60461;-39
2023/08/16 10:10:53;;;;;;;7.30;5.10;;;;;;;33.84;36.57;100122.73;106835;1263;60213;-39
2023/08/16 10:13:21;;;;;;;8.20;5.70;;;;;;;34.03;35.89;100118.83;106976;1260;73856;-40
2023/08/16 10:15:49;;;;;;;7.30;5.50;;;;;;;34.08;34.92;100115.38;106855;1263;67639;-39
2023/08/16 10:18:16;;;;;;;5.90;5.20;;;;;;;34.07;34.67;100111.39;106844;1261;71413;-40
2023/08/16 10:20:45;;;;;;;7.30;5.40;;;;;;;34.15;35.00;100110.81;106819;1262;60498;-39
2023/08/16 10:23:13;;;;;;;9.10;5.40;;;;;;;34.34;34.99;100108.27;106968;1261;60473;-40
2023/08/16 10:25:46;;;;;;;7.30;5.30;;;;;;;34.57;34.73;100108.36;106865;1261;73914;-40
2023/08/16 10:28:18;;;;;;;7.80;5.60;;;;;;;34.79;34.27;100102.92;106887;1261;67787;-40
2023/08/16 10:30:47;;;;;;;6.20;5.30;;;;;;;35.00;33.41;100100.14;106956;1263;71427;-40
2023/08/16 10:33:39;;;;;;;11.10;5.30;;;;;;;35.24;33.28;100097.17;106998;1261;59581;-40
2023/08/16 10:36:07;;;;;;;7.00;5.30;;;;;;;35.46;32.32;100098.36;106832;1261;60446;-40
2023/08/16 10:38:37;;;;;;;9.20;5.80;;;;;;;35.67;31.82;100097.90;106837;1264;73881;-40
2023/08/16 10:41:14;;;;;;;7.30;4.90;;;;;;;35.86;31.46;100094.38;106905;1264;66954;-39
2023/08/16 10:43:47;;;;;;;9.70;5.80;;;;;;;36.03;31.39;100095.47;106864;1260;73085;-40
2023/08/16 10:46:30;;;;;;;6.70;5.50;;;;;;;36.19;31.36;100088.41;106901;1260;59507;-40
2023/08/16 10:48:59;;;;;;;7.50;5.50;;;;;;;36.36;30.52;100096.16;107012;1260;60405;-40
2023/08/16 10:51:30;;;;;;;6.10;5.50;;;;;;;36.49;30.54;100090.75;106843;1260;75842;-40
2023/08/16 10:53:58;;;;;;;10.60;5.50;;;;;;;36.68;30.69;100084.93;106911;1261;67671;-40
2023/08/16 10:56:36;;;;;;;8.40;5.60;;;;;;;36.84;30.72;100086.21;106910;1260;72687;-40
2023/08/16 10:59:07;;;;;;;14.10;5.40;;;;;;;37.00;30.50;100085.91;106935;1264;60401;-40
2023/08/16 11:01:35;;;;;;;10.30;5.40;;;;;;;37.17;30.66;100081.59;107326;1257;60289;-40
2023/08/16 11:04:06;;;;;;;7.00;5.00;;;;;;;37.30;30.25;100076.09;107110;1257;73806;-40
2023/08/16 11:06:33;;;;;;;;;;;;;;;37.40;30.08;100079.70;107259;1257;67181;-40
2023/08/16 11:09:17;;;;;;;7.70;5.20;;;;;;;37.39;29.48;100076.21;107095;1257;71629;-41
2023/08/16 11:11:48;;;;;;;5.50;4.90;;;;;;;37.31;29.32;100076.64;107112;1257;60342;-41
2023/08/16 11:14:17;;;;;;;6.20;4.80;;;;;;;37.13;29.58;100073.65;107168;1257;60340;-41
2023/08/16 11:16:45;;;;;;;6.80;5.30;;;;;;;36.84;30.01;100073.38;107108;1257;73888;-41
2023/08/16 11:19:14;;;;;;;9.20;5.60;;;;;;;36.49;30.46;100068.16;107176;1257;66760;-41
2023/08/16 11:21:47;;;;;;;5.90;5.30;;;;;;;36.20;30.99;100063.52;107097;1256;72651;-39